Time;durP1;ratioP1;P1;durP2;ratioP2;P2;SDS_P1;SDS_P2;PMS_P1;PMS_P2;Temp;Humidity;BMP_temperature;BMP_pressure;BME280_temperature;BME280_humidity;BME280_pressure;Samples;Min_cycle;Max_cycle;Signal;HPM_P1;HPM_P2
2021/11/09 00:00:21;;;;;;;;;8.00;6.00;;;;;8.52;68.10;102192.91;5085464;28;45401;-79
2021/11/09 00:02:47;;;;;;;;;5.25;5.25;;;;;8.46;68.06;102178.84;5085203;28;45446;-79
2021/11/09 00:05:16;;;;;;;;;9.75;7.00;;;;;8.39;67.93;102168.16;5085011;28;45309;-79
2021/11/09 00:07:47;;;;;;;;;8.25;8.00;;;;;8.34;67.98;102160.19;5085465;28;45311;-80
2021/11/09 00:10:13;;;;;;;;;4.25;4.00;;;;;8.48;67.95;102187.59;5085147;28;45303;-79
2021/11/09 00:12:45;;;;;;;;;5.50;5.50;;;;;8.43;68.15;102168.38;5085237;28;45375;-79
2021/11/09 00:15:14;;;;;;;;;5.00;5.00;;;;;8.45;68.22;102171.00;5085206;28;45319;-79
2021/11/09 00:17:40;;;;;;;;;9.00;5.75;;;;;8.34;68.26;102166.28;5087772;28;45316;-79
2021/11/09 00:20:08;;;;;;;;;13.50;6.00;;;;;8.34;68.14;102170.56;5087373;28;45337;-79
2021/11/09 00:22:34;;;;;;;;;9.75;9.25;;;;;8.27;68.46;102173.75;5085803;28;46222;-79
2021/11/09 00:24:59;;;;;;;;;5.50;5.50;;;;;8.20;68.26;102167.41;5085165;28;45306;-80
2021/11/09 00:27:25;;;;;;;;;8.50;6.50;;;;;8.19;68.36;102168.22;5085837;28;45315;-79
2021/11/09 00:29:50;;;;;;;;;3.00;2.25;;;;;7.96;68.46;102124.94;5067479;28;45310;-79
2021/11/09 00:32:16;;;;;;;;;5.50;5.50;;;;;8.05;68.65;102147.78;5083812;28;48406;-79
2021/11/09 00:34:43;;;;;;;;;0.50;0.50;;;;;8.12;68.30;102167.09;5085269;28;45872;-79
2021/11/09 00:37:08;;;;;;;;;7.00;7.00;;;;;8.03;68.55;102151.13;5086050;28;45292;-79
2021/11/09 00:39:34;;;;;;;;;5.75;4.50;;;;;8.04;68.58;102152.91;5085430;28;45279;-79
2021/11/09 00:41:59;;;;;;;;;7.00;6.00;;;;;7.96;68.31;102142.19;5085293;28;45487;-79
2021/11/09 00:44:26;;;;;;;;;8.75;7.50;;;;;8.11;68.50;102167.91;5085221;28;45204;-79
2021/11/09 00:46:52;;;;;;;;;6.50;5.00;;;;;8.04;68.68;102156.41;5083808;28;45435;-80
2021/11/09 00:49:20;;;;;;;;;9.50;4.75;;;;;8.08;68.65;102160.88;5085059;28;45461;-79
2021/11/09 00:51:47;;;;;;;;;3.00;3.00;;;;;8.03;68.39;102148.56;5084854;28;45507;-79
2021/11/09 00:54:13;;;;;;;;;5.50;5.50;;;;;7.93;68.72;102137.78;5084728;28;45276;-79
2021/11/09 00:56:39;;;;;;;;;8.00;6.50;;;;;8.00;68.21;102146.72;5085021;28;45268;-79
2021/11/09 00:59:05;;;;;;;;;4.50;4.50;;;;;8.14;68.60;102173.22;5083688;28;45261;-79
2021/11/09 01:01:32;;;;;;;;;2.00;2.00;;;;;8.13;68.67;102170.56;5084335;28;45341;-80
2021/11/09 01:03:58;;;;;;;;;3.75;3.75;;;;;7.98;68.19;102158.72;5084263;28;45248;-79
2021/11/09 01:06:24;;;;;;;;;5.00;5.00;;;;;8.03;68.47;102166.69;5084461;28;45354;-79
2021/11/09 01:08:49;;;;;;;;;5.75;4.50;;;;;8.09;68.22;102175.63;5084612;28;45497;-79
2021/11/09 01:11:15;;;;;;;;;7.75;6.00;;;;;7.88;68.62;102149.69;5084381;28;45406;-79
2021/11/09 01:13:40;;;;;;;;;8.00;7.00;;;;;7.90;68.29;102160.13;5084471;28;45324;-79
2021/11/09 01:16:06;;;;;;;;;9.00;6.25;;;;;7.91;68.69;102167.97;5066130;28;45325;-80
2021/11/09 01:18:37;;;;;;;;;3.75;3.00;;;;;7.95;68.42;102176.75;5066423;28;45998;-79
2021/11/09 01:21:04;;;;;;;;;8.00;6.00;;;;;7.83;68.34;102159.84;5084442;28;46118;-79
2021/11/09 01:23:31;;;;;;;;;7.25;5.75;;;;;7.74;68.62;102138.69;5084102;28;45376;-79
2021/11/09 01:25:57;;;;;;;;;8.25;4.50;;;;;7.96;68.49;102176.81;5084238;28;45342;-80
2021/11/09 01:28:23;;;;;;;;;5.75;2.75;;;;;8.01;68.47;102183.91;5084487;28;45310;-79
2021/11/09 01:30:48;;;;;;;;;8.50;7.50;;;;;7.91;68.54;102173.16;5083614;28;46025;-79
2021/11/09 01:33:15;;;;;;;;;7.50;5.75;;;;;7.94;68.05;102180.16;5083792;28;45169;-79
2021/11/09 01:35:40;;;;;;;;;5.75;5.00;;;;;7.90;68.48;102176.53;5083982;28;45247;-78
2021/11/09 01:38:07;;;;;;;;;6.75;4.50;;;;;7.70;68.79;102145.47;5084018;28;45234;-78
2021/11/09 01:40:35;;;;;;;;;6.00;6.00;;;;;7.95;68.73;102192.31;5065195;28;47396;-79
2021/11/09 01:43:00;;;;;;;;;7.25;5.75;;;;;7.89;68.72;102185.16;5083548;28;45355;-78
2021/11/09 01:45:26;;;;;;;;;1.75;1.75;;;;;7.88;68.62;102190.25;5084120;28;45293;-79
2021/11/09 01:47:53;;;;;;;;;6.25;6.25;;;;;7.86;68.45;102191.09;5065834;28;45497;-79
2021/11/09 01:50:24;;;;;;;;;2.00;2.00;;;;;7.91;68.36;102198.19;5083539;28;46421;-78
2021/11/09 01:52:49;;;;;;;;;3.25;3.00;;;;;7.73;68.43;102170.63;5065113;28;45351;-79
2021/11/09 01:55:18;;;;;;;;;5.00;5.00;;;;;7.81;69.02;102194.31;5083619;28;45373;-79
2021/11/09 01:57:43;;;;;;;;;5.25;4.75;;;;;7.53;69.28;102162.88;5084167;28;45535;-79
2021/11/09 02:00:17;;;;;;;;;5.00;4.25;;;;;7.63;68.98;102173.66;5081459;28;47156;-78
2021/11/09 02:02:43;;;;;;;;;6.25;6.25;;;;;7.70;68.66;102186.06;5083299;28;45357;-78
2021/11/09 02:05:10;;;;;;;;;4.25;4.25;;;;;7.69;68.79;102184.28;5083371;28;45231;-78
2021/11/09 02:07:43;;;;;;;;;7.00;4.00;;;;;7.71;68.65;102191.31;5083798;28;45320;-78
2021/11/09 02:10:09;;;;;;;;;8.50;4.75;;;;;7.68;68.46;102190.28;5083159;28;45284;-78
2021/11/09 02:12:34;;;;;;;;;7.50;6.00;;;;;7.69;68.76;102187.75;5083358;28;45355;-79
2021/11/09 02:15:00;;;;;;;;;4.00;3.25;;;;;7.65;68.64;102183.25;5083513;28;45283;-78
2021/11/09 02:17:26;;;;;;;;;4.00;4.00;;;;;7.52;68.61;102179.25;5083777;28;45232;-78
2021/11/09 02:19:53;;;;;;;;;7.75;5.50;;;;;7.50;68.73;102180.00;5083028;28;46447;-78
2021/11/09 02:22:18;;;;;;;;;3.75;3.75;;;;;7.56;68.81;102194.09;5083160;28;45383;-79
2021/11/09 02:24:44;;;;;;;;;4.75;3.00;;;;;7.52;68.59;102192.19;5082991;28;45553;-78
2021/11/09 02:27:09;;;;;;;;;8.00;4.75;;;;;7.50;69.01;102187.78;5083559;28;45267;-78
2021/11/09 02:29:36;;;;;;;;;4.00;4.00;;;;;7.52;68.73;102191.31;5083174;28;46040;-79
2021/11/09 02:32:04;;;;;;;;;5.50;3.75;;;;;7.45;69.05;102184.97;5082651;28;45325;-78
2021/11/09 02:34:29;;;;;;;;;5.25;3.00;;;;;7.39;68.84;102174.31;5082949;28;45321;-79
2021/11/09 02:36:55;;;;;;;;;4.75;4.25;;;;;7.53;69.08;102203.47;5083154;28;45193;-78
2021/11/09 02:39:20;;;;;;;;;3.00;3.00;;;;;7.47;68.81;102204.06;5081657;28;48089;-79
2021/11/09 02:41:46;;;;;;;;;3.00;3.00;;;;;7.42;68.44;102190.00;5082966;28;45360;-79
2021/11/09 02:44:11;;;;;;;;;2.75;2.25;;;;;7.50;68.50;102209.38;5083236;28;45294;-78
2021/11/09 02:46:50;;;;;;;;;3.50;3.50;;;;;7.45;68.40;102208.28;5084724;28;45650;-79
2021/11/09 02:49:22;;;;;;;;;1.00;1.00;;;;;7.31;68.62;102189.50;5084835;28;45259;-79
2021/11/09 02:52:01;;;;;;;;;1.25;1.25;;;;;7.31;68.49;102186.94;5083998;28;45287;-78
2021/11/09 02:54:36;;;;;;;;;2.00;2.00;;;;;7.28;69.09;102171.25;5082899;28;45446;-78
2021/11/09 02:57:08;;;;;;;;;3.00;3.00;;;;;7.29;69.15;102173.03;5083025;28;45283;-78
2021/11/09 03:07:10;;;;;;;;;2.00;2.00;;;;;7.35;68.90;102202.69;5083108;28;45731;-78
2021/11/09 03:09:42;;;;;;;;;4.50;4.00;;;;;7.09;68.95;102158.38;5082437;28;45328;-78
2021/11/09 03:12:10;;;;;;;;;6.25;5.25;;;;;7.39;68.67;102200.25;5083313;28;45262;-79
2021/11/09 03:14:36;;;;;;;;;5.00;2.25;;;;;7.38;68.52;102201.06;5086283;28;45467;-79
2021/11/09 03:17:10;;;;;;;;;2.75;2.75;;;;;7.35;68.56;102197.50;5086541;28;45462;-79
2021/11/09 03:19:43;;;;;;;;;2.75;2.75;;;;;7.14;68.87;102173.22;5085996;28;47006;-78
2021/11/09 03:46:46;;;;;;;;;3.75;2.50;;;;;6.96;69.61;102182.78;5085674;28;45299;-79
2021/11/09 03:49:13;;;;;;;;;7.00;3.25;;;;;6.97;69.34;102186.25;5084402;28;45381;-79
2021/11/09 03:51:39;;;;;;;;;4.75;3.00;;;;;6.85;69.37;102165.84;5085444;28;46239;-79
2021/11/09 03:54:10;;;;;;;;;3.00;2.25;;;;;6.91;69.77;102170.44;5085413;28;45224;-79
2021/11/09 03:57:03;;;;;;;;;3.00;1.75;;;;;7.04;69.49;102190.91;5067451;28;45394;-79
2021/11/09 03:59:30;;;;;;;;;4.00;1.00;;;;;7.07;69.66;102193.66;5085425;28;45413;-79
2021/11/09 04:04:35;;;;;;;;;4.75;3.00;;;;;6.97;69.48;102174.22;5085168;28;45279;-79
2021/11/09 04:10:21;;;;;;;;;2.00;2.00;;;;;6.70;69.30;102145.31;5042784;28;45428;-79
2021/11/09 04:52:28;;;;;;;;;5.25;4.50;;;;;6.82;69.65;102210.63;5084941;28;45774;-79
2021/11/09 05:08:47;;;;;;;;;7.25;5.00;;;;;6.54;69.23;102182.50;5084067;28;45344;-79
2021/11/09 05:11:14;;;;;;;;;3.00;3.00;;;;;6.78;69.44;102229.41;5083772;28;45384;-79
2021/11/09 05:13:40;;;;;;;;;5.00;4.00;;;;;6.74;69.37;102230.03;5084182;28;45492;-79
2021/11/09 05:16:06;;;;;;;;;3.75;3.00;;;;;6.59;69.14;102209.50;5084243;28;45354;-79
2021/11/09 05:18:32;;;;;;;;;7.25;4.00;;;;;6.63;68.77;102216.59;5084776;28;45269;-79
2021/11/09 05:20:58;;;;;;;;;6.75;5.00;;;;;6.50;69.55;102201.28;5086838;28;45390;-79
2021/11/09 05:23:23;;;;;;;;;4.25;4.00;;;;;5.93;69.63;102097.66;5085162;28;45208;-79
2021/11/09 05:25:49;;;;;;;;;4.50;4.50;;;;;6.66;69.72;102236.56;5083960;28;45795;-79
2021/11/09 05:28:15;;;;;;;;;4.50;3.75;;;;;6.65;69.49;102237.38;5065548;28;45267;-79
2021/11/09 05:30:43;;;;;;;;;3.75;3.75;;;;;6.58;69.37;102231.00;5083581;28;45244;-79
2021/11/09 05:33:09;;;;;;;;;7.00;4.50;;;;;6.41;69.21;102210.38;5082482;28;45350;-79
2021/11/09 05:35:34;;;;;;;;;4.50;3.25;;;;;6.55;69.62;102246.38;5082207;28;46081;-78
2021/11/09 05:38:02;;;;;;;;;6.50;3.25;;;;;6.52;69.59;102243.66;5083404;28;45285;-79
2021/11/09 05:40:34;;;;;;;;;5.00;3.00;;;;;6.41;69.86;102225.00;5083487;28;45330;-79
2021/11/09 05:43:00;;;;;;;;;6.00;3.50;;;;;6.55;70.20;102248.97;5083420;28;45321;-79
2021/11/09 05:45:26;;;;;;;;;3.00;3.00;;;;;6.52;69.71;102241.94;5082986;28;46467;-79
2021/11/09 05:47:52;;;;;;;;;6.25;3.75;;;;;6.45;69.57;102226.94;5083367;28;45276;-79
2021/11/09 05:50:18;;;;;;;;;5.00;5.00;;;;;6.53;69.55;102233.38;5083145;28;45302;-79
2021/11/09 05:52:43;;;;;;;;;2.50;2.50;;;;;6.64;69.62;102253.72;5083454;28;45267;-79
2021/11/09 05:55:09;;;;;;;;;4.25;3.75;;;;;6.57;69.21;102239.59;5082877;28;45335;-79
2021/11/09 05:57:35;;;;;;;;;5.25;4.00;;;;;6.60;69.55;102250.09;5083299;28;45296;-79
2021/11/09 06:00:02;;;;;;;;;5.00;4.00;;;;;6.65;69.67;102261.53;5082141;28;45219;-79
2021/11/09 06:02:28;;;;;;;;;4.25;4.00;;;;;6.51;69.28;102242.75;5083818;28;45449;-80
2021/11/09 06:04:54;;;;;;;;;3.25;2.75;;;;;6.54;69.55;102262.72;5082888;28;45993;-81
2021/11/09 06:07:20;;;;;;;;;2.00;2.00;;;;;6.41;69.15;102246.59;5083165;28;45367;-79
2021/11/09 06:09:45;;;;;;;;;3.25;3.00;;;;;6.37;69.34;102254.13;5064932;28;45336;-79
2021/11/09 06:12:11;;;;;;;;;4.00;4.00;;;;;6.47;69.80;102277.06;5083685;28;45441;-79
2021/11/09 06:14:36;;;;;;;;;3.00;3.00;;;;;6.43;69.89;102278.59;5081276;28;46243;-79
2021/11/09 06:17:02;;;;;;;;;10.00;5.75;;;;;6.31;69.98;102252.13;5082704;28;45326;-79
2021/11/09 06:19:28;;;;;;;;;7.00;6.00;;;;;6.41;69.99;102264.72;5064412;28;45335;-79
2021/11/09 06:21:54;;;;;;;;;4.25;3.25;;;;;6.22;70.00;102244.78;5083101;28;45410;-81
2021/11/09 06:24:19;;;;;;;;;4.50;4.50;;;;;6.40;69.81;102275.84;5082861;28;46142;-79
2021/11/09 06:26:45;;;;;;;;;8.25;4.50;;;;;6.42;69.63;102282.00;5082608;28;45161;-79
2021/11/09 06:29:11;;;;;;;;;4.75;4.75;;;;;6.41;69.84;102289.69;5083060;28;45453;-79
2021/11/09 06:31:37;;;;;;;;;5.25;3.50;;;;;6.31;69.79;102276.25;5082934;28;45412;-79
2021/11/09 06:34:03;;;;;;;;;5.00;3.75;;;;;6.39;69.78;102283.53;5082505;28;45193;-78
2021/11/09 06:36:28;;;;;;;;;5.00;3.25;;;;;6.40;69.89;102280.16;5082690;28;45466;-78
2021/11/09 06:38:53;;;;;;;;;4.25;4.25;;;;;6.37;69.53;102280.00;5082603;28;45386;-78
2021/11/09 06:41:20;;;;;;;;;6.00;5.25;;;;;6.19;69.65;102258.41;5082765;28;45275;-79
2021/11/09 06:43:45;;;;;;;;;6.00;6.00;;;;;6.34;69.73;102283.28;5081914;28;45442;-78
2021/11/09 06:46:10;;;;;;;;;7.00;6.00;;;;;6.22;69.60;102273.22;5083358;28;45300;-78
2021/11/09 06:48:36;;;;;;;;;4.50;4.50;;;;;6.31;69.50;102281.44;5082810;28;45374;-78
2021/11/09 06:51:03;;;;;;;;;4.25;4.25;;;;;6.28;69.19;102281.28;5082941;28;45343;-78
2021/11/09 06:53:29;;;;;;;;;4.75;4.75;;;;;6.37;69.59;102298.97;5080728;28;47212;-78
2021/11/09 06:55:55;;;;;;;;;7.25;5.00;;;;;6.33;69.58;102299.63;5064499;28;45621;-79
2021/11/09 06:58:20;;;;;;;;;4.25;4.00;;;;;6.32;69.31;102296.16;5082689;28;45165;-80
2021/11/09 07:00:46;;;;;;;;;5.75;4.00;;;;;6.29;69.66;102288.25;5082285;28;45212;-79
2021/11/09 07:03:12;;;;;;;;;3.25;2.50;;;;;6.42;69.57;102307.88;5082823;28;45378;-80
2021/11/09 07:05:37;;;;;;;;;9.25;6.50;;;;;6.37;69.37;102296.38;5082921;28;45284;-80
2021/11/09 07:08:03;;;;;;;;;3.25;3.25;;;;;6.39;69.86;102299.94;5082442;28;45217;-80
2021/11/09 07:10:28;;;;;;;;;10.25;7.50;;;;;6.50;69.93;102305.69;5082036;28;45299;-79
2021/11/09 07:12:54;;;;;;;;;4.25;4.25;;;;;6.53;69.78;102305.84;5081950;28;46616;-79
2021/11/09 07:15:20;;;;;;;;;6.00;4.50;;;;;6.59;69.58;102307.84;5081982;28;45406;-79
2021/11/09 07:17:47;;;;;;;;;4.50;4.50;;;;;6.51;69.97;102280.66;5081769;28;45513;-79
2021/11/09 07:20:15;;;;;;;;;3.75;1.50;;;;;6.75;69.92;102301.72;5081830;28;45365;-80
2021/11/09 07:22:41;;;;;;;;;3.25;3.25;;;;;6.83;69.57;102308.16;5081777;28;45423;-79
2021/11/09 07:25:08;;;;;;;;;0.00;0.00;;;;;6.93;69.63;102314.69;5081836;28;45232;-80
2021/11/09 07:27:33;;;;;;;;;5.00;3.75;;;;;6.80;69.30;102287.28;5082088;28;45275;-78
2021/11/09 07:30:01;;;;;;;;;3.25;3.25;;;;;6.99;69.28;102297.69;5081827;28;45256;-78
2021/11/09 07:32:27;;;;;;;;;3.00;3.00;;;;;7.16;69.46;102316.59;5080816;28;45343;-79
2021/11/09 07:34:53;;;;;;;;;3.00;2.75;;;;;7.21;69.30;102315.13;5079771;28;45318;-79
2021/11/09 07:37:18;;;;;;;;;3.25;2.75;;;;;7.19;69.43;102306.41;5081823;28;45227;-79
2021/11/09 07:39:44;;;;;;;;;5.50;4.25;;;;;7.31;69.07;102313.88;5062919;28;45635;-79
2021/11/09 07:42:10;;;;;;;;;2.75;2.25;;;;;7.31;68.80;102304.41;5063076;28;48083;-79
2021/11/09 07:44:36;;;;;;;;;3.00;2.25;;;;;7.38;69.10;102307.28;5079854;28;45270;-79
2021/11/09 07:47:03;;;;;;;;;3.50;3.50;;;;;7.51;68.84;102326.88;5080045;28;45196;-79
2021/11/09 07:49:29;;;;;;;;;3.75;3.00;;;;;7.60;68.98;102337.69;5080120;28;45333;-79
2021/11/09 07:51:55;;;;;;;;;3.50;2.25;;;;;7.63;68.76;102334.34;5088685;28;45459;-79
2021/11/09 07:54:25;;;;;;;;;6.75;5.75;;;;;7.69;69.22;102337.22;5087029;28;45247;-79
2021/11/09 07:57:00;;;;;;;;;4.00;4.00;;;;;7.48;69.34;102304.31;5065560;28;45275;-79
2021/11/09 07:59:31;;;;;;;;;5.75;3.25;;;;;7.70;68.53;102332.13;5085301;28;45424;-79
2021/11/09 08:02:11;;;;;;;;;4.25;3.00;;;;;7.82;68.92;102352.53;5085077;28;46074;-79
2021/11/09 08:04:49;;;;;;;;;6.00;6.00;;;;;7.79;68.60;102352.41;5085206;28;45284;-79
2021/11/09 08:07:25;;;;;;;;;8.25;5.00;;;;;7.80;67.96;102353.25;5066174;28;45358;-79
2021/11/09 08:09:50;;;;;;;;;7.00;5.50;;;;;7.72;67.88;102342.56;5084344;28;45346;-79
2021/11/09 08:12:16;;;;;;;;;7.00;5.00;;;;;7.64;68.06;102341.31;5084716;28;45366;-79
2021/11/09 08:14:41;;;;;;;;;6.50;6.25;;;;;7.63;67.96;102334.34;5084720;28;45327;-79
2021/11/09 08:17:08;;;;;;;;;7.00;5.00;;;;;7.70;67.84;102344.19;5084911;28;45311;-79
2021/11/09 08:19:34;;;;;;;;;9.00;7.00;;;;;7.75;67.80;102350.44;5085987;28;45416;-79
2021/11/09 08:21:59;;;;;;;;;4.75;4.75;;;;;7.76;68.39;102340.97;5066504;28;47071;-79
2021/11/09 08:24:26;;;;;;;;;7.00;5.75;;;;;7.85;67.82;102346.59;5066125;28;45313;-79
2021/11/09 08:26:55;;;;;;;;;7.00;5.25;;;;;7.88;67.75;102348.44;5085105;28;45222;-79
2021/11/09 08:29:26;;;;;;;;;5.75;3.25;;;;;7.86;67.64;102349.28;5086107;28;45319;-79
2021/11/09 08:31:56;;;;;;;;;4.75;4.75;;;;;7.88;67.85;102351.94;5085099;28;45978;-79
2021/11/09 08:34:22;;;;;;;;;4.25;4.25;;;;;7.95;67.70;102358.28;5065930;28;46144;-79
2021/11/09 08:36:48;;;;;;;;;4.00;4.00;;;;;7.92;68.18;102347.75;5066465;28;45329;-79
2021/11/09 08:39:58;;;;;;;;;3.50;3.25;;;;;8.06;67.59;102358.78;5084953;28;45216;-78
2021/11/09 08:44:36;;;;;;;;;7.00;7.00;;;;;8.22;67.54;102366.44;5085685;28;45334;-78
2021/11/09 08:47:02;;;;;;;;;4.00;4.00;;;;;8.36;67.18;102369.63;5085069;28;45247;-79
2021/11/09 08:49:30;;;;;;;;;4.50;3.00;;;;;8.32;67.36;102343.47;5086695;28;45234;-80
2021/11/09 08:51:57;;;;;;;;;4.50;3.00;;;;;8.52;67.31;102365.13;5083886;28;47005;-79
2021/11/09 08:54:36;;;;;;;;;5.00;2.25;;;;;8.67;67.22;102364.03;5084048;28;45382;-79
2021/11/09 08:57:44;;;;;;;;;6.00;3.50;;;;;8.82;67.19;102372.44;5083895;28;45488;-79
2021/11/09 09:05:35;;;;;;;;;3.50;3.00;;;;;9.25;66.41;102362.94;5083868;28;45251;-78
2021/11/09 09:08:01;;;;;;;;;1.00;1.00;;;;;9.34;66.09;102361.56;5083970;28;45188;-79
2021/11/09 09:10:26;;;;;;;;;4.00;0.75;;;;;9.45;65.90;102367.16;5084324;28;45350;-78
2021/11/09 09:12:52;;;;;;;;;2.00;1.00;;;;;9.44;65.58;102339.41;5083865;28;46653;-79
2021/11/09 09:15:18;;;;;;;;;1.00;1.00;;;;;9.59;65.74;102357.31;5084093;28;45224;-79
2021/11/09 09:17:43;;;;;;;;;1.00;1.00;;;;;9.45;64.98;102321.28;5065437;28;45277;-79
2021/11/09 09:20:24;;;;;;;;;1.00;0.00;;;;;9.71;65.08;102357.78;5084008;28;45383;-79
2021/11/09 09:23:15;;;;;;;;;1.25;1.25;;;;;9.75;64.62;102354.50;5083676;28;46204;-79
2021/11/09 09:28:31;;;;;;;;;1.25;0.75;;;;;9.95;64.05;102345.66;5083576;28;45476;-79
2021/11/09 09:57:24;;;;;;;;;1.00;1.00;;;;;10.41;61.62;102316.91;5083046;28;45336;-79
2021/11/09 09:59:54;;;;;;;;;0.00;0.00;;;;;10.72;61.70;102354.47;5083708;28;45279;-78
2021/11/09 10:02:26;;;;;;;;;3.00;2.50;;;;;10.80;62.14;102355.59;5083589;28;45475;-79
2021/11/09 10:04:54;;;;;;;;;6.00;4.75;;;;;10.74;62.41;102351.06;5064316;28;48308;-79
2021/11/09 10:07:30;;;;;;;;;4.75;3.75;;;;;10.77;62.08;102339.84;5083158;28;45479;-79
2021/11/09 10:09:57;;;;;;;;;4.00;2.00;;;;;10.84;61.69;102349.66;5083035;28;45294;-80
2021/11/09 10:12:34;;;;;;;;;1.50;1.00;;;;;10.85;61.66;102343.63;5065567;28;45343;-80
2021/11/09 10:15:06;;;;;;;;;3.00;2.75;;;;;10.85;61.51;102340.13;5082890;28;45374;-79
2021/11/09 10:17:33;;;;;;;;;6.75;3.75;;;;;10.85;61.87;102338.41;5082262;28;45385;-79
2021/11/09 10:20:09;;;;;;;;;2.50;2.50;;;;;10.86;61.92;102340.19;5081309;28;45446;-79
2021/11/09 10:22:35;;;;;;;;;4.25;4.25;;;;;10.69;62.08;102326.56;5083023;28;45259;-79
2021/11/09 10:25:02;;;;;;;;;4.25;2.00;;;;;10.86;61.85;102334.06;5083261;28;45233;-78
2021/11/09 10:27:33;;;;;;;;;6.00;3.75;;;;;10.89;61.76;102336.78;5085211;28;45144;-78
2021/11/09 10:30:04;;;;;;;;;3.75;3.00;;;;;10.89;61.62;102336.78;5088336;28;45265;-79
2021/11/09 10:32:30;;;;;;;;;3.50;2.50;;;;;10.87;61.48;102313.28;5061842;28;45510;-79
2021/11/09 10:34:59;;;;;;;;;3.75;2.00;;;;;11.08;61.83;102335.66;5044645;28;48132;-79
2021/11/09 10:37:30;;;;;;;;;2.00;2.00;;;;;11.12;61.58;102328.84;5062945;28;45298;-79
2021/11/09 10:40:04;;;;;;;;;7.25;5.00;;;;;11.03;61.47;102317.25;5062551;28;45458;-79
2021/11/09 10:42:30;;;;;;;;;7.75;3.00;;;;;10.82;61.48;102291.41;5062647;28;45340;-80
2021/11/09 10:45:03;;;;;;;;;4.00;4.00;;;;;10.87;61.36;102312.38;5062163;28;45352;-79
2021/11/09 10:47:32;;;;;;;;;5.50;4.75;;;;;10.99;61.32;102328.44;5044914;28;45495;-80
2021/11/09 10:50:44;;;;;;;;;6.50;6.50;;;;;11.05;61.07;102334.69;5044388;28;45432;-80
2021/11/09 10:53:16;;;;;;;;;4.00;4.00;;;;;11.05;60.76;102324.28;5062083;28;45747;-79
2021/11/09 10:56:20;;;;;;;;;2.00;2.00;;;;;11.08;60.95;102316.50;5062029;28;45252;-79
2021/11/09 10:59:01;;;;;;;;;4.50;3.00;;;;;11.11;60.47;102324.44;5061892;28;45189;-81
2021/11/09 11:04:00;;;;;;;;;3.50;1.50;;;;;11.13;60.82;102308.03;5061870;28;45467;-79
2021/11/09 11:06:30;;;;;;;;;3.50;2.50;;;;;11.26;60.22;102311.00;5061914;28;47058;-77
2021/11/09 11:09:03;;;;;;;;;3.25;2.75;;;;;11.32;60.38;102303.38;5043289;28;45189;-78
2021/11/09 11:11:31;;;;;;;;;7.25;2.00;;;;;11.41;60.20;102302.78;5061968;28;45240;-79
2021/11/09 11:14:09;;;;;;;;;3.50;2.25;;;;;11.33;59.71;102286.91;5061871;28;45498;-79
2021/11/09 11:17:00;;;;;;;;;1.00;1.00;;;;;11.47;59.50;102297.75;5061133;28;46576;-80
2021/11/09 11:19:42;;;;;;;;;3.75;1.25;;;;;11.47;59.65;102291.63;5052333;28;45355;-79
2021/11/09 11:22:16;;;;;;;;;1.75;1.75;;;;;11.43;59.53;102275.03;5061688;28;45300;-79
2021/11/09 11:24:43;;;;;;;;;0.75;0.75;;;;;11.40;59.15;102274.94;5062016;28;45292;-79
2021/11/09 11:27:10;;;;;;;;;0.25;0.25;;;;;11.52;59.18;102296.16;5061485;28;46096;-79
2021/11/09 11:29:36;;;;;;;;;1.00;1.00;;;;;11.44;59.29;102268.97;5061703;28;45233;-79
2021/11/09 11:32:08;;;;;;;;;3.50;2.00;;;;;11.59;59.17;102294.63;5066682;28;45233;-80
2021/11/09 11:34:34;;;;;;;;;3.75;2.00;;;;;11.61;59.05;102281.63;5083787;28;45253;-80
2021/11/09 11:37:00;;;;;;;;;3.75;2.00;;;;;11.56;58.83;102270.16;5084544;28;45241;-80
2021/11/09 11:39:28;;;;;;;;;2.75;0.75;;;;;11.61;58.34;102279.03;5084530;28;45287;-78
2021/11/09 11:42:00;;;;;;;;;2.00;0.25;;;;;11.58;58.44;102274.56;5085238;28;45276;-81
2021/11/09 11:44:28;;;;;;;;;5.00;3.00;;;;;11.56;58.36;102260.63;5066687;28;45205;-80
2021/11/09 11:46:56;;;;;;;;;1.50;1.00;;;;;11.53;58.25;102255.31;5084291;28;46263;-78
2021/11/09 11:49:27;;;;;;;;;2.00;1.00;;;;;11.59;57.83;102257.22;5083136;28;45290;-81
2021/11/09 11:51:52;;;;;;;;;4.50;2.00;;;;;11.64;57.91;102263.47;5085097;28;45276;-80
2021/11/09 11:54:35;;;;;;;;;1.00;1.00;;;;;11.59;57.60;102258.13;5066703;28;45397;-79
2021/11/09 11:57:01;;;;;;;;;1.25;1.25;;;;;11.27;57.32;102201.56;5084489;28;45302;-79
2021/11/09 11:59:26;;;;;;;;;3.75;0.75;;;;;11.59;57.36;102255.50;5084340;28;45227;-78
2021/11/09 12:01:56;;;;;;;;;4.75;2.00;;;;;11.45;57.29;102241.19;5084392;28;45201;-80
2021/11/09 12:04:40;;;;;;;;;3.00;1.00;;;;;11.60;56.84;102238.09;5067023;28;45391;-80
2021/11/09 12:07:08;;;;;;;;;1.00;1.00;;;;;11.57;57.43;102236.31;5084882;28;45475;-80
2021/11/09 12:09:39;;;;;;;;;1.25;0.50;;;;;11.63;57.56;102240.81;5084786;28;45320;-80
2021/11/09 12:12:23;;;;;;;;;0.25;0.25;;;;;11.63;57.67;102240.81;5084475;28;45319;-80
2021/11/09 12:15:04;;;;;;;;;2.00;1.00;;;;;11.61;57.09;102230.31;5066105;28;45589;-80
2021/11/09 12:17:36;;;;;;;;;1.00;1.00;;;;;11.65;56.65;102233.91;5065908;28;46412;-80
2021/11/09 12:20:06;;;;;;;;;4.00;1.00;;;;;11.63;56.63;102225.16;5084203;28;45360;-80
2021/11/09 12:22:40;;;;;;;;;1.00;1.00;;;;;11.54;56.52;102210.13;5066531;28;45247;-80
2021/11/09 12:25:09;;;;;;;;;1.00;1.00;;;;;11.61;56.51;102217.28;5084549;28;45358;-80
2021/11/09 12:27:46;;;;;;;;;4.25;0.75;;;;;11.57;56.61;102215.44;5084404;28;46507;-80
2021/11/09 12:30:31;;;;;;;;;4.25;1.25;;;;;11.55;56.05;102216.25;5065756;28;45319;-78
2021/11/09 12:33:14;;;;;;;;;4.25;1.25;;;;;11.56;56.34;102211.06;5061714;28;45308;-79
2021/11/09 12:35:44;;;;;;;;;2.00;2.00;;;;;11.58;56.22;102209.38;5064305;28;45358;-79
2021/11/09 12:38:13;;;;;;;;;0.50;0.50;;;;;11.62;55.85;102208.66;5063666;28;45223;-79
2021/11/09 12:40:50;;;;;;;;;2.00;2.00;;;;;11.63;55.81;102194.75;5063704;28;45345;-79
2021/11/09 12:43:27;;;;;;;;;1.00;1.00;;;;;11.71;55.74;102201.91;5064216;28;45355;-79
2021/11/09 12:46:06;;;;;;;;;2.00;1.00;;;;;11.74;55.70;102202.88;5045024;28;45550;-79
2021/11/09 12:48:36;;;;;;;;;0.75;0.75;;;;;11.71;55.27;102205.41;5045096;28;47437;-79
2021/11/09 12:51:07;;;;;;;;;0.00;0.00;;;;;11.78;55.53;102207.34;5063937;28;45268;-79
2021/11/09 12:53:43;;;;;;;;;0.50;0.00;;;;;11.72;55.25;102188.91;5064062;28;45225;-79
2021/11/09 12:56:12;;;;;;;;;1.00;0.00;;;;;11.78;55.20;102188.19;5065546;28;45560;-79
2021/11/09 12:59:02;;;;;;;;;0.75;0.75;;;;;11.86;55.01;102193.63;5066593;28;47216;-79
2021/11/09 13:01:42;;;;;;;;;1.00;1.00;;;;;11.88;55.25;102192.81;5067744;28;45248;-79
2021/11/09 13:07:31;;;;;;;;;0.00;0.00;;;;;11.89;53.83;102197.16;5064410;28;45576;-80
2021/11/09 13:09:51;;;;;;;;;3.00;1.00;;;;;11.90;53.53;102198.97;5059429;28;46274;-78
2021/11/09 13:12:21;;;;;;;;;1.00;1.00;;;;;11.78;53.36;102164.69;5063966;28;45402;-80
2021/11/09 13:14:50;;;;;;;;;1.50;0.25;;;;;11.95;53.56;102188.66;5062546;28;45256;-80
2021/11/09 13:17:45;;;;;;;;;0.50;0.00;;;;;11.90;53.89;102183.31;5063826;28;45694;-80
2021/11/09 13:22:55;;;;;;;;;0.00;0.00;;;;;11.12;53.06;102065.59;5062775;28;45248;-80
2021/11/09 13:25:37;;;;;;;;;0.00;0.00;;;;;11.69;52.76;102170.56;5063266;28;45262;-78
2021/11/09 13:28:19;;;;;;;;;0.00;0.00;;;;;11.84;53.30;102188.34;5063690;28;45390;-78
2021/11/09 13:30:53;;;;;;;;;2.00;0.50;;;;;11.77;52.71;102173.38;5062583;28;46083;-80
2021/11/09 13:33:20;;;;;;;;;1.00;1.00;;;;;11.74;52.75;102176.78;5079031;28;45314;-78
2021/11/09 13:35:46;;;;;;;;;0.00;0.00;;;;;11.69;52.23;102165.34;5083834;28;45324;-79
2021/11/09 13:38:31;;;;;;;;;0.00;0.00;;;;;11.71;52.79;102166.28;5084073;28;45620;-79
2021/11/09 13:41:03;;;;;;;;;2.00;0.00;;;;;11.83;52.63;102185.69;5083496;28;45415;-79
2021/11/09 13:43:34;;;;;;;;;0.00;0.00;;;;;11.86;52.19;102186.69;5083428;28;45356;-80
2021/11/09 13:46:12;;;;;;;;;1.00;0.00;;;;;11.89;52.50;102173.69;5083469;28;45221;-80
2021/11/09 13:48:40;;;;;;;;;0.75;0.00;;;;;11.85;53.04;102168.38;5065619;28;45273;-80
2021/11/09 13:51:11;;;;;;;;;0.25;0.25;;;;;11.90;52.24;102169.34;5081792;28;47318;-80
2021/11/09 13:53:45;;;;;;;;;0.00;0.00;;;;;11.86;51.69;102157.09;5082553;28;45457;-80
2021/11/09 13:56:16;;;;;;;;;0.75;0.00;;;;;11.79;52.29;102149.09;5080292;28;45318;-80
2021/11/09 13:59:02;;;;;;;;;2.00;0.00;;;;;11.91;51.98;102152.84;5083094;28;45330;-80